RJTU(METAR)
02/28 07:00
METAR RJTU 272200Z 02009KT 9999 FEW020 BKN035 BKN050 01/M08 Q1027
RMK 1SC020 5SC035 6SC050 A3034=
戻る
トップページへ戻る
IMOC Co,.Ltd.